sensor_id;sensor_type;location;lat;lon;timestamp;P1;durP1;ratioP1;P2;durP2;ratioP2
25950;SDS011;13748;52.240;6.002;2023-07-16T00:02:02;5.50;;;2.90;;
25950;SDS011;13748;52.240;6.002;2023-07-16T00:04:30;10.35;;;2.17;;
25950;SDS011;13748;52.240;6.002;2023-07-16T00:07:00;6.97;;;2.53;;
25950;SDS011;13748;52.240;6.002;2023-07-16T00:09:28;5.35;;;2.30;;
25950;SDS011;13748;52.240;6.002;2023-07-16T00:11:56;2.85;;;2.08;;
25950;SDS011;13748;52.240;6.002;2023-07-16T00:14:23;7.18;;;2.55;;
25950;SDS011;13748;52.240;6.002;2023-07-16T00:16:49;5.63;;;2.55;;
25950;SDS011;13748;52.240;6.002;2023-07-16T00:19:16;5.25;;;2.08;;
25950;SDS011;13748;52.240;6.002;2023-07-16T00:21:43;3.40;;;2.15;;
25950;SDS011;13748;52.240;6.002;2023-07-16T00:24:10;3.30;;;2.00;;
25950;SDS011;13748;52.240;6.002;2023-07-16T00:26:37;6.63;;;2.60;;
25950;SDS011;13748;52.240;6.002;2023-07-16T00:29:04;3.40;;;2.10;;
25950;SDS011;13748;52.240;6.002;2023-07-16T00:31:30;6.43;;;2.60;;
25950;SDS011;13748;52.240;6.002;2023-07-16T00:33:57;7.47;;;2.40;;
25950;SDS011;13748;52.240;6.002;2023-07-16T00:36:24;6.18;;;2.35;;
25950;SDS011;13748;52.240;6.002;2023-07-16T00:38:51;6.00;;;2.03;;
25950;SDS011;13748;52.240;6.002;2023-07-16T00:41:18;5.35;;;2.10;;
25950;SDS011;13748;52.240;6.002;2023-07-16T00:43:44;4.85;;;2.33;;
25950;SDS011;13748;52.240;6.002;2023-07-16T00:46:11;2.53;;;1.77;;
25950;SDS011;13748;52.240;6.002;2023-07-16T00:48:40;5.35;;;2.15;;
25950;SDS011;13748;52.240;6.002;2023-07-16T00:51:08;4.50;;;2.10;;
25950;SDS011;13748;52.240;6.002;2023-07-16T00:53:35;4.57;;;2.13;;
25950;SDS011;13748;52.240;6.002;2023-07-16T00:56:02;5.03;;;2.10;;
25950;SDS011;13748;52.240;6.002;2023-07-16T00:58:29;3.60;;;2.05;;
25950;SDS011;13748;52.240;6.002;2023-07-16T01:00:56;4.72;;;1.90;;
25950;SDS011;13748;52.240;6.002;2023-07-16T01:03:22;6.35;;;2.50;;
25950;SDS011;13748;52.240;6.002;2023-07-16T01:05:54;4.97;;;2.30;;
25950;SDS011;13748;52.240;6.002;2023-07-16T01:08:42;5.47;;;1.70;;
25950;SDS011;13748;52.240;6.002;2023-07-16T01:11:22;4.38;;;1.95;;
25950;SDS011;13748;52.240;6.002;2023-07-16T01:13:50;2.63;;;1.70;;
25950;SDS011;13748;52.240;6.002;2023-07-16T01:16:22;5.20;;;1.92;;
25950;SDS011;13748;52.240;6.002;2023-07-16T01:18:50;4.45;;;1.85;;
25950;SDS011;13748;52.240;6.002;2023-07-16T01:21:18;4.93;;;2.08;;
25950;SDS011;13748;52.240;6.002;2023-07-16T01:23:50;4.63;;;1.90;;
25950;SDS011;13748;52.240;6.002;2023-07-16T01:29:30;6.60;;;2.20;;
25950;SDS011;13748;52.240;6.002;2023-07-16T01:32:02;5.88;;;2.13;;
25950;SDS011;13748;52.240;6.002;2023-07-16T01:34:31;4.32;;;2.03;;
25950;SDS011;13748;52.240;6.002;2023-07-16T01:37:01;5.30;;;2.17;;
25950;SDS011;13748;52.240;6.002;2023-07-16T01:39:29;4.82;;;2.35;;
25950;SDS011;13748;52.240;6.002;2023-07-16T01:41:57;5.18;;;2.20;;
25950;SDS011;13748;52.240;6.002;2023-07-16T01:44:23;3.47;;;2.22;;
25950;SDS011;13748;52.240;6.002;2023-07-16T01:47:03;4.93;;;2.70;;
25950;SDS011;13748;52.240;6.002;2023-07-16T01:49:32;5.95;;;3.33;;
25950;SDS011;13748;52.240;6.002;2023-07-16T01:51:59;7.55;;;2.53;;
25950;SDS011;13748;52.240;6.002;2023-07-16T01:54:30;4.22;;;2.42;;
25950;SDS011;13748;52.240;6.002;2023-07-16T01:56:57;6.07;;;2.50;;
25950;SDS011;13748;52.240;6.002;2023-07-16T01:59:24;5.40;;;2.45;;
25950;SDS011;13748;52.240;6.002;2023-07-16T02:01:51;7.43;;;2.28;;
25950;SDS011;13748;52.240;6.002;2023-07-16T02:04:18;7.97;;;2.30;;
25950;SDS011;13748;52.240;6.002;2023-07-16T02:06:45;6.47;;;2.25;;
25950;SDS011;13748;52.240;6.002;2023-07-16T02:09:12;4.30;;;2.50;;
25950;SDS011;13748;52.240;6.002;2023-07-16T02:11:38;6.88;;;2.20;;
25950;SDS011;13748;52.240;6.002;2023-07-16T02:14:05;2.97;;;2.03;;
25950;SDS011;13748;52.240;6.002;2023-07-16T02:16:32;5.18;;;2.58;;
25950;SDS011;13748;52.240;6.002;2023-07-16T02:18:59;6.00;;;2.00;;
25950;SDS011;13748;52.240;6.002;2023-07-16T02:21:25;6.35;;;2.60;;
25950;SDS011;13748;52.240;6.002;2023-07-16T02:23:52;4.60;;;2.43;;
25950;SDS011;13748;52.240;6.002;2023-07-16T02:26:19;4.57;;;2.73;;
25950;SDS011;13748;52.240;6.002;2023-07-16T02:28:46;6.50;;;2.20;;
25950;SDS011;13748;52.240;6.002;2023-07-16T02:31:13;6.68;;;2.88;;
25950;SDS011;13748;52.240;6.002;2023-07-16T02:33:39;6.18;;;2.50;;
25950;SDS011;13748;52.240;6.002;2023-07-16T02:36:06;5.45;;;2.85;;
25950;SDS011;13748;52.240;6.002;2023-07-16T02:38:33;5.60;;;2.95;;
25950;SDS011;13748;52.240;6.002;2023-07-16T02:41:00;12.65;;;2.78;;
25950;SDS011;13748;52.240;6.002;2023-07-16T02:43:27;4.30;;;2.60;;
25950;SDS011;13748;52.240;6.002;2023-07-16T02:45:53;6.35;;;2.42;;
25950;SDS011;13748;52.240;6.002;2023-07-16T02:48:20;10.90;;;3.05;;
25950;SDS011;13748;52.240;6.002;2023-07-16T02:50:48;6.57;;;2.53;;
25950;SDS011;13748;52.240;6.002;2023-07-16T02:53:14;7.40;;;2.97;;
25950;SDS011;13748;52.240;6.002;2023-07-16T02:55:41;5.20;;;2.27;;
25950;SDS011;13748;52.240;6.002;2023-07-16T02:58:08;6.18;;;2.47;;
25950;SDS011;13748;52.240;6.002;2023-07-16T03:00:35;5.70;;;2.47;;
25950;SDS011;13748;52.240;6.002;2023-07-16T03:03:02;5.30;;;2.60;;
25950;SDS011;13748;52.240;6.002;2023-07-16T03:05:29;4.70;;;2.50;;
25950;SDS011;13748;52.240;6.002;2023-07-16T03:07:56;5.38;;;2.72;;
25950;SDS011;13748;52.240;6.002;2023-07-16T03:10:23;8.57;;;2.95;;
25950;SDS011;13748;52.240;6.002;2023-07-16T03:12:53;9.15;;;2.75;;
25950;SDS011;13748;52.240;6.002;2023-07-16T03:15:20;5.13;;;2.33;;
25950;SDS011;13748;52.240;6.002;2023-07-16T03:17:47;5.82;;;2.38;;
25950;SDS011;13748;52.240;6.002;2023-07-16T03:20:14;5.30;;;2.87;;
25950;SDS011;13748;52.240;6.002;2023-07-16T03:22:41;4.20;;;2.40;;
25950;SDS011;13748;52.240;6.002;2023-07-16T03:25:07;5.80;;;2.40;;
25950;SDS011;13748;52.240;6.002;2023-07-16T03:27:34;6.30;;;2.47;;
25950;SDS011;13748;52.240;6.002;2023-07-16T03:30:01;7.90;;;2.87;;
25950;SDS011;13748;52.240;6.002;2023-07-16T03:32:29;4.90;;;2.58;;
25950;SDS011;13748;52.240;6.002;2023-07-16T03:35:11;6.97;;;3.20;;
25950;SDS011;13748;52.240;6.002;2023-07-16T03:37:38;7.00;;;3.10;;
25950;SDS011;13748;52.240;6.002;2023-07-16T03:40:12;7.40;;;2.90;;
25950;SDS011;13748;52.240;6.002;2023-07-16T03:42:41;7.77;;;3.23;;
25950;SDS011;13748;52.240;6.002;2023-07-16T03:45:09;5.18;;;3.03;;
25950;SDS011;13748;52.240;6.002;2023-07-16T03:47:36;5.03;;;2.57;;
25950;SDS011;13748;52.240;6.002;2023-07-16T03:50:04;7.40;;;2.63;;
25950;SDS011;13748;52.240;6.002;2023-07-16T03:52:31;6.13;;;2.80;;
25950;SDS011;13748;52.240;6.002;2023-07-16T03:54:58;4.30;;;2.33;;
25950;SDS011;13748;52.240;6.002;2023-07-16T03:57:25;6.43;;;2.53;;
25950;SDS011;13748;52.240;6.002;2023-07-16T03:59:54;4.63;;;2.17;;
25950;SDS011;13748;52.240;6.002;2023-07-16T04:02:21;9.23;;;2.77;;
25950;SDS011;13748;52.240;6.002;2023-07-16T04:04:49;5.53;;;2.80;;
25950;SDS011;13748;52.240;6.002;2023-07-16T04:07:17;6.30;;;2.23;;
25950;SDS011;13748;52.240;6.002;2023-07-16T04:09:44;6.50;;;2.35;;
25950;SDS011;13748;52.240;6.002;2023-07-16T04:12:11;6.03;;;2.27;;
25950;SDS011;13748;52.240;6.002;2023-07-16T04:14:37;5.67;;;2.80;;
25950;SDS011;13748;52.240;6.002;2023-07-16T04:17:04;5.15;;;2.90;;
25950;SDS011;13748;52.240;6.002;2023-07-16T04:19:31;3.13;;;2.37;;
25950;SDS011;13748;52.240;6.002;2023-07-16T04:21:58;5.23;;;2.53;;
25950;SDS011;13748;52.240;6.002;2023-07-16T04:24:25;4.82;;;2.72;;
25950;SDS011;13748;52.240;6.002;2023-07-16T04:26:53;6.60;;;2.90;;
25950;SDS011;13748;52.240;6.002;2023-07-16T04:29:20;9.65;;;3.50;;
25950;SDS011;13748;52.240;6.002;2023-07-16T04:31:47;6.90;;;3.00;;
25950;SDS011;13748;52.240;6.002;2023-07-16T04:34:14;5.77;;;2.90;;
25950;SDS011;13748;52.240;6.002;2023-07-16T04:36:41;7.28;;;3.35;;
25950;SDS011;13748;52.240;6.002;2023-07-16T04:39:09;8.60;;;3.30;;
25950;SDS011;13748;52.240;6.002;2023-07-16T04:41:36;8.45;;;3.30;;
25950;SDS011;13748;52.240;6.002;2023-07-16T04:44:03;6.32;;;3.13;;
25950;SDS011;13748;52.240;6.002;2023-07-16T04:46:30;5.90;;;2.90;;
25950;SDS011;13748;52.240;6.002;2023-07-16T04:48:57;6.47;;;3.20;;
25950;SDS011;13748;52.240;6.002;2023-07-16T04:51:24;6.20;;;3.38;;
25950;SDS011;13748;52.240;6.002;2023-07-16T04:53:51;8.13;;;3.33;;
25950;SDS011;13748;52.240;6.002;2023-07-16T04:56:17;9.68;;;3.22;;
25950;SDS011;13748;52.240;6.002;2023-07-16T04:58:45;4.47;;;2.60;;
25950;SDS011;13748;52.240;6.002;2023-07-16T05:01:12;7.88;;;3.63;;
25950;SDS011;13748;52.240;6.002;2023-07-16T05:03:39;7.25;;;3.20;;
25950;SDS011;13748;52.240;6.002;2023-07-16T05:06:06;5.03;;;2.57;;
25950;SDS011;13748;52.240;6.002;2023-07-16T05:08:33;8.18;;;4.20;;
25950;SDS011;13748;52.240;6.002;2023-07-16T05:11:00;4.45;;;3.00;;
25950;SDS011;13748;52.240;6.002;2023-07-16T05:13:28;7.63;;;3.50;;
25950;SDS011;13748;52.240;6.002;2023-07-16T05:15:55;5.70;;;2.78;;
25950;SDS011;13748;52.240;6.002;2023-07-16T05:18:22;7.93;;;3.40;;
25950;SDS011;13748;52.240;6.002;2023-07-16T05:20:49;7.05;;;3.33;;
25950;SDS011;13748;52.240;6.002;2023-07-16T05:23:16;7.63;;;3.50;;
25950;SDS011;13748;52.240;6.002;2023-07-16T05:25:46;9.15;;;3.70;;
25950;SDS011;13748;52.240;6.002;2023-07-16T05:28:15;5.47;;;2.40;;
25950;SDS011;13748;52.240;6.002;2023-07-16T05:30:42;8.55;;;3.28;;
25950;SDS011;13748;52.240;6.002;2023-07-16T05:33:12;6.10;;;3.53;;
25950;SDS011;13748;52.240;6.002;2023-07-16T05:35:39;8.45;;;3.78;;
25950;SDS011;13748;52.240;6.002;2023-07-16T05:38:06;5.65;;;3.28;;
25950;SDS011;13748;52.240;6.002;2023-07-16T05:40:33;6.53;;;3.30;;
25950;SDS011;13748;52.240;6.002;2023-07-16T05:43:00;6.63;;;3.78;;
25950;SDS011;13748;52.240;6.002;2023-07-16T05:45:27;5.63;;;2.90;;
25950;SDS011;13748;52.240;6.002;2023-07-16T05:47:54;7.20;;;3.50;;
25950;SDS011;13748;52.240;6.002;2023-07-16T05:50:21;5.88;;;3.00;;
25950;SDS011;13748;52.240;6.002;2023-07-16T05:52:48;6.20;;;3.58;;
25950;SDS011;13748;52.240;6.002;2023-07-16T05:55:15;6.10;;;3.03;;
25950;SDS011;13748;52.240;6.002;2023-07-16T05:57:42;8.20;;;3.00;;
25950;SDS011;13748;52.240;6.002;2023-07-16T06:00:09;6.60;;;3.53;;
25950;SDS011;13748;52.240;6.002;2023-07-16T06:02:36;6.35;;;2.95;;
25950;SDS011;13748;52.240;6.002;2023-07-16T06:05:03;7.32;;;2.78;;
25950;SDS011;13748;52.240;6.002;2023-07-16T06:07:31;5.45;;;2.83;;
25950;SDS011;13748;52.240;6.002;2023-07-16T06:09:58;6.68;;;3.28;;
25950;SDS011;13748;52.240;6.002;2023-07-16T06:12:25;5.22;;;3.45;;
25950;SDS011;13748;52.240;6.002;2023-07-16T06:14:53;6.43;;;3.35;;
25950;SDS011;13748;52.240;6.002;2023-07-16T06:17:20;6.93;;;3.17;;
25950;SDS011;13748;52.240;6.002;2023-07-16T06:19:46;4.97;;;3.25;;
25950;SDS011;13748;52.240;6.002;2023-07-16T06:22:16;5.50;;;3.22;;
25950;SDS011;13748;52.240;6.002;2023-07-16T06:24:43;5.70;;;3.45;;
25950;SDS011;13748;52.240;6.002;2023-07-16T06:27:10;5.78;;;3.45;;
25950;SDS011;13748;52.240;6.002;2023-07-16T06:29:37;7.32;;;3.00;;
25950;SDS011;13748;52.240;6.002;2023-07-16T06:32:04;5.63;;;3.08;;
25950;SDS011;13748;52.240;6.002;2023-07-16T06:34:32;9.40;;;3.63;;
25950;SDS011;13748;52.240;6.002;2023-07-16T06:36:59;4.47;;;3.22;;
25950;SDS011;13748;52.240;6.002;2023-07-16T06:39:26;5.63;;;3.25;;
25950;SDS011;13748;52.240;6.002;2023-07-16T06:41:53;5.80;;;3.35;;
25950;SDS011;13748;52.240;6.002;2023-07-16T06:44:20;5.25;;;3.45;;
25950;SDS011;13748;52.240;6.002;2023-07-16T06:46:48;6.53;;;3.50;;
25950;SDS011;13748;52.240;6.002;2023-07-16T06:49:15;5.35;;;3.47;;
25950;SDS011;13748;52.240;6.002;2023-07-16T06:51:42;4.75;;;3.50;;
25950;SDS011;13748;52.240;6.002;2023-07-16T06:54:09;5.07;;;3.35;;
25950;SDS011;13748;52.240;6.002;2023-07-16T06:56:36;7.70;;;3.70;;
25950;SDS011;13748;52.240;6.002;2023-07-16T06:59:02;9.13;;;4.13;;
25950;SDS011;13748;52.240;6.002;2023-07-16T07:01:29;7.43;;;4.00;;
25950;SDS011;13748;52.240;6.002;2023-07-16T07:03:56;7.78;;;3.38;;
25950;SDS011;13748;52.240;6.002;2023-07-16T07:06:23;6.28;;;3.65;;
25950;SDS011;13748;52.240;6.002;2023-07-16T07:08:51;6.18;;;3.70;;
25950;SDS011;13748;52.240;6.002;2023-07-16T07:11:18;8.27;;;3.28;;
25950;SDS011;13748;52.240;6.002;2023-07-16T07:13:45;7.80;;;3.63;;
25950;SDS011;13748;52.240;6.002;2023-07-16T07:16:12;5.57;;;3.72;;
25950;SDS011;13748;52.240;6.002;2023-07-16T07:18:40;8.00;;;3.92;;
25950;SDS011;13748;52.240;6.002;2023-07-16T07:21:06;4.38;;;3.13;;
25950;SDS011;13748;52.240;6.002;2023-07-16T07:23:33;7.90;;;3.75;;
25950;SDS011;13748;52.240;6.002;2023-07-16T07:26:00;7.88;;;3.70;;
25950;SDS011;13748;52.240;6.002;2023-07-16T07:28:27;7.97;;;3.40;;
25950;SDS011;13748;52.240;6.002;2023-07-16T07:30:54;6.22;;;3.30;;
25950;SDS011;13748;52.240;6.002;2023-07-16T07:33:21;5.72;;;3.50;;
25950;SDS011;13748;52.240;6.002;2023-07-16T07:35:48;5.75;;;3.30;;
25950;SDS011;13748;52.240;6.002;2023-07-16T07:38:19;9.00;;;3.72;;
25950;SDS011;13748;52.240;6.002;2023-07-16T07:40:46;5.95;;;3.08;;
25950;SDS011;13748;52.240;6.002;2023-07-16T07:43:12;7.20;;;3.22;;
25950;SDS011;13748;52.240;6.002;2023-07-16T07:45:39;7.13;;;3.92;;
25950;SDS011;13748;52.240;6.002;2023-07-16T07:48:06;5.80;;;3.08;;
25950;SDS011;13748;52.240;6.002;2023-07-16T07:50:33;7.70;;;3.33;;
25950;SDS011;13748;52.240;6.002;2023-07-16T07:52:59;5.38;;;3.50;;
25950;SDS011;13748;52.240;6.002;2023-07-16T07:55:26;7.90;;;3.30;;
25950;SDS011;13748;52.240;6.002;2023-07-16T07:57:53;7.03;;;3.97;;
25950;SDS011;13748;52.240;6.002;2023-07-16T08:00:20;6.50;;;3.78;;
25950;SDS011;13748;52.240;6.002;2023-07-16T08:02:47;7.25;;;3.53;;
25950;SDS011;13748;52.240;6.002;2023-07-16T08:05:14;5.70;;;3.47;;
25950;SDS011;13748;52.240;6.002;2023-07-16T08:07:41;8.48;;;3.92;;
25950;SDS011;13748;52.240;6.002;2023-07-16T08:10:08;7.22;;;3.92;;
25950;SDS011;13748;52.240;6.002;2023-07-16T08:12:35;8.35;;;4.13;;
25950;SDS011;13748;52.240;6.002;2023-07-16T08:15:02;7.75;;;3.97;;
25950;SDS011;13748;52.240;6.002;2023-07-16T08:17:30;7.95;;;4.50;;
25950;SDS011;13748;52.240;6.002;2023-07-16T08:19:57;9.18;;;3.92;;
25950;SDS011;13748;52.240;6.002;2023-07-16T08:22:24;7.28;;;3.92;;
25950;SDS011;13748;52.240;6.002;2023-07-16T08:24:51;11.18;;;5.13;;
25950;SDS011;13748;52.240;6.002;2023-07-16T08:27:18;8.35;;;3.85;;
25950;SDS011;13748;52.240;6.002;2023-07-16T08:29:46;7.25;;;4.15;;
25950;SDS011;13748;52.240;6.002;2023-07-16T08:32:12;8.77;;;4.28;;
25950;SDS011;13748;52.240;6.002;2023-07-16T08:34:39;8.43;;;4.35;;
25950;SDS011;13748;52.240;6.002;2023-07-16T08:37:06;9.88;;;5.07;;
25950;SDS011;13748;52.240;6.002;2023-07-16T08:39:33;9.65;;;4.25;;
25950;SDS011;13748;52.240;6.002;2023-07-16T08:42:00;7.90;;;4.40;;
25950;SDS011;13748;52.240;6.002;2023-07-16T08:44:28;6.50;;;4.30;;
25950;SDS011;13748;52.240;6.002;2023-07-16T08:46:56;8.10;;;4.70;;
25950;SDS011;13748;52.240;6.002;2023-07-16T08:49:23;6.80;;;3.72;;
25950;SDS011;13748;52.240;6.002;2023-07-16T08:51:51;8.95;;;4.50;;
25950;SDS011;13748;52.240;6.002;2023-07-16T08:54:20;10.77;;;4.90;;
25950;SDS011;13748;52.240;6.002;2023-07-16T08:56:49;6.15;;;3.95;;
25950;SDS011;13748;52.240;6.002;2023-07-16T08:59:17;8.50;;;4.07;;
25950;SDS011;13748;52.240;6.002;2023-07-16T09:01:46;7.93;;;3.97;;
25950;SDS011;13748;52.240;6.002;2023-07-16T09:04:15;10.45;;;4.00;;
25950;SDS011;13748;52.240;6.002;2023-07-16T09:06:43;6.22;;;4.30;;
25950;SDS011;13748;52.240;6.002;2023-07-16T09:09:28;5.65;;;3.88;;
25950;SDS011;13748;52.240;6.002;2023-07-16T09:11:56;8.52;;;4.10;;
25950;SDS011;13748;52.240;6.002;2023-07-16T09:14:22;8.10;;;4.75;;
25950;SDS011;13748;52.240;6.002;2023-07-16T09:16:50;11.95;;;5.07;;
25950;SDS011;13748;52.240;6.002;2023-07-16T09:19:18;9.40;;;4.53;;
25950;SDS011;13748;52.240;6.002;2023-07-16T09:21:46;9.25;;;4.43;;
25950;SDS011;13748;52.240;6.002;2023-07-16T09:24:17;9.50;;;4.70;;
25950;SDS011;13748;52.240;6.002;2023-07-16T09:26:50;11.07;;;4.72;;
25950;SDS011;13748;52.240;6.002;2023-07-16T09:29:18;7.35;;;4.13;;
25950;SDS011;13748;52.240;6.002;2023-07-16T09:31:59;7.15;;;4.53;;
25950;SDS011;13748;52.240;6.002;2023-07-16T09:34:27;7.70;;;4.35;;
25950;SDS011;13748;52.240;6.002;2023-07-16T09:36:56;7.68;;;4.45;;
25950;SDS011;13748;52.240;6.002;2023-07-16T09:39:26;7.38;;;4.70;;
25950;SDS011;13748;52.240;6.002;2023-07-16T09:41:54;8.52;;;4.50;;
25950;SDS011;13748;52.240;6.002;2023-07-16T09:44:23;8.25;;;4.40;;
25950;SDS011;13748;52.240;6.002;2023-07-16T09:46:50;7.60;;;4.20;;
25950;SDS011;13748;52.240;6.002;2023-07-16T09:49:17;8.20;;;4.43;;
25950;SDS011;13748;52.240;6.002;2023-07-16T09:51:45;6.90;;;4.05;;
25950;SDS011;13748;52.240;6.002;2023-07-16T09:54:14;11.85;;;4.97;;
25950;SDS011;13748;52.240;6.002;2023-07-16T09:56:53;9.25;;;4.80;;
25950;SDS011;13748;52.240;6.002;2023-07-16T09:59:27;9.68;;;4.25;;
25950;SDS011;13748;52.240;6.002;2023-07-16T10:01:56;9.48;;;4.63;;
25950;SDS011;13748;52.240;6.002;2023-07-16T10:04:24;7.30;;;3.83;;
25950;SDS011;13748;52.240;6.002;2023-07-16T10:06:52;8.27;;;4.35;;
25950;SDS011;13748;52.240;6.002;2023-07-16T10:14:44;10.73;;;4.18;;
25950;SDS011;13748;52.240;6.002;2023-07-16T10:17:15;8.05;;;4.30;;
25950;SDS011;13748;52.240;6.002;2023-07-16T10:19:47;7.45;;;3.58;;
25950;SDS011;13748;52.240;6.002;2023-07-16T10:22:30;6.95;;;4.03;;
25950;SDS011;13748;52.240;6.002;2023-07-16T10:24:58;8.15;;;3.63;;
25950;SDS011;13748;52.240;6.002;2023-07-16T10:27:29;8.63;;;3.67;;
25950;SDS011;13748;52.240;6.002;2023-07-16T10:29:57;6.88;;;4.22;;
25950;SDS011;13748;52.240;6.002;2023-07-16T10:32:26;6.75;;;3.83;;
25950;SDS011;13748;52.240;6.002;2023-07-16T10:34:55;9.13;;;4.40;;
25950;SDS011;13748;52.240;6.002;2023-07-16T10:37:22;6.45;;;3.50;;
25950;SDS011;13748;52.240;6.002;2023-07-16T10:39:53;8.60;;;3.63;;
25950;SDS011;13748;52.240;6.002;2023-07-16T10:42:22;7.75;;;3.80;;
25950;SDS011;13748;52.240;6.002;2023-07-16T10:44:50;6.70;;;4.32;;
25950;SDS011;13748;52.240;6.002;2023-07-16T10:47:19;9.88;;;4.40;;
25950;SDS011;13748;52.240;6.002;2023-07-16T10:49:47;8.25;;;4.15;;
25950;SDS011;13748;52.240;6.002;2023-07-16T10:52:14;7.50;;;3.90;;
25950;SDS011;13748;52.240;6.002;2023-07-16T10:54:41;6.93;;;3.67;;
25950;SDS011;13748;52.240;6.002;2023-07-16T10:57:08;8.95;;;3.78;;
25950;SDS011;13748;52.240;6.002;2023-07-16T10:59:42;7.63;;;4.15;;
25950;SDS011;13748;52.240;6.002;2023-07-16T11:02:11;8.20;;;4.00;;
25950;SDS011;13748;52.240;6.002;2023-07-16T11:04:40;7.43;;;3.80;;
25950;SDS011;13748;52.240;6.002;2023-07-16T11:07:08;6.82;;;4.13;;
25950;SDS011;13748;52.240;6.002;2023-07-16T11:09:47;9.40;;;4.30;;
25950;SDS011;13748;52.240;6.002;2023-07-16T11:12:23;7.15;;;3.97;;
25950;SDS011;13748;52.240;6.002;2023-07-16T11:14:51;12.25;;;4.40;;
25950;SDS011;13748;52.240;6.002;2023-07-16T11:17:20;7.43;;;3.95;;
25950;SDS011;13748;52.240;6.002;2023-07-16T11:19:49;8.95;;;5.00;;
25950;SDS011;13748;52.240;6.002;2023-07-16T11:22:18;7.97;;;4.13;;
25950;SDS011;13748;52.240;6.002;2023-07-16T11:24:45;8.73;;;4.22;;
25950;SDS011;13748;52.240;6.002;2023-07-16T11:27:17;7.88;;;4.13;;
25950;SDS011;13748;52.240;6.002;2023-07-16T11:29:51;7.32;;;3.80;;
25950;SDS011;13748;52.240;6.002;2023-07-16T11:35:11;6.60;;;4.03;;
25950;SDS011;13748;52.240;6.002;2023-07-16T11:37:42;7.80;;;3.83;;
25950;SDS011;13748;52.240;6.002;2023-07-16T11:40:09;7.10;;;3.95;;
25950;SDS011;13748;52.240;6.002;2023-07-16T11:42:38;6.22;;;4.20;;
25950;SDS011;13748;52.240;6.002;2023-07-16T11:45:14;9.27;;;4.15;;
25950;SDS011;13748;52.240;6.002;2023-07-16T11:47:43;9.07;;;3.88;;
25950;SDS011;13748;52.240;6.002;2023-07-16T11:50:10;8.88;;;4.05;;
25950;SDS011;13748;52.240;6.002;2023-07-16T11:52:38;9.43;;;3.88;;
25950;SDS011;13748;52.240;6.002;2023-07-16T11:55:05;8.73;;;3.90;;
25950;SDS011;13748;52.240;6.002;2023-07-16T11:57:32;8.18;;;3.80;;
25950;SDS011;13748;52.240;6.002;2023-07-16T12:00:00;10.40;;;3.83;;
25950;SDS011;13748;52.240;6.002;2023-07-16T12:02:27;8.40;;;3.42;;
25950;SDS011;13748;52.240;6.002;2023-07-16T12:04:55;6.82;;;3.22;;
25950;SDS011;13748;52.240;6.002;2023-07-16T12:07:37;7.90;;;3.70;;
25950;SDS011;13748;52.240;6.002;2023-07-16T12:10:05;6.78;;;3.22;;
25950;SDS011;13748;52.240;6.002;2023-07-16T12:12:33;6.80;;;3.22;;
25950;SDS011;13748;52.240;6.002;2023-07-16T12:15:05;6.30;;;2.92;;
25950;SDS011;13748;52.240;6.002;2023-07-16T12:17:33;8.15;;;3.45;;
25950;SDS011;13748;52.240;6.002;2023-07-16T12:20:01;6.22;;;3.10;;
25950;SDS011;13748;52.240;6.002;2023-07-16T12:22:30;6.20;;;3.35;;
25950;SDS011;13748;52.240;6.002;2023-07-16T12:24:58;5.43;;;3.25;;
25950;SDS011;13748;52.240;6.002;2023-07-16T12:27:24;6.50;;;3.72;;
25950;SDS011;13748;52.240;6.002;2023-07-16T12:29:51;5.53;;;3.30;;
25950;SDS011;13748;52.240;6.002;2023-07-16T12:32:18;6.50;;;3.60;;
25950;SDS011;13748;52.240;6.002;2023-07-16T12:34:46;6.40;;;3.47;;
25950;SDS011;13748;52.240;6.002;2023-07-16T12:37:13;8.02;;;3.83;;
25950;SDS011;13748;52.240;6.002;2023-07-16T12:39:40;9.57;;;4.38;;
25950;SDS011;13748;52.240;6.002;2023-07-16T12:42:07;7.95;;;3.70;;
25950;SDS011;13748;52.240;6.002;2023-07-16T12:44:34;6.22;;;3.72;;
25950;SDS011;13748;52.240;6.002;2023-07-16T12:47:01;9.75;;;3.95;;
25950;SDS011;13748;52.240;6.002;2023-07-16T12:49:28;9.63;;;4.55;;
25950;SDS011;13748;52.240;6.002;2023-07-16T12:51:55;6.05;;;3.40;;
25950;SDS011;13748;52.240;6.002;2023-07-16T12:54:22;6.65;;;4.03;;
25950;SDS011;13748;52.240;6.002;2023-07-16T12:56:49;7.38;;;3.63;;
25950;SDS011;13748;52.240;6.002;2023-07-16T12:59:16;5.63;;;3.20;;
25950;SDS011;13748;52.240;6.002;2023-07-16T13:01:43;7.43;;;4.18;;
25950;SDS011;13748;52.240;6.002;2023-07-16T13:04:10;6.68;;;4.00;;
25950;SDS011;13748;52.240;6.002;2023-07-16T13:06:37;7.68;;;3.60;;
25950;SDS011;13748;52.240;6.002;2023-07-16T13:09:08;5.85;;;3.50;;
25950;SDS011;13748;52.240;6.002;2023-07-16T13:11:35;5.70;;;3.53;;
25950;SDS011;13748;52.240;6.002;2023-07-16T13:14:02;5.72;;;3.40;;
25950;SDS011;13748;52.240;6.002;2023-07-16T13:16:29;7.07;;;3.33;;
25950;SDS011;13748;52.240;6.002;2023-07-16T13:18:56;6.78;;;3.15;;
25950;SDS011;13748;52.240;6.002;2023-07-16T13:21:23;4.47;;;2.80;;
25950;SDS011;13748;52.240;6.002;2023-07-16T13:23:50;5.53;;;3.00;;
25950;SDS011;13748;52.240;6.002;2023-07-16T13:26:17;6.75;;;3.28;;
25950;SDS011;13748;52.240;6.002;2023-07-16T13:28:44;7.13;;;3.42;;
25950;SDS011;13748;52.240;6.002;2023-07-16T13:31:11;6.47;;;3.05;;
25950;SDS011;13748;52.240;6.002;2023-07-16T13:33:38;6.22;;;2.95;;
25950;SDS011;13748;52.240;6.002;2023-07-16T13:36:05;6.68;;;3.20;;
25950;SDS011;13748;52.240;6.002;2023-07-16T13:38:32;3.95;;;3.08;;
25950;SDS011;13748;52.240;6.002;2023-07-16T13:40:58;6.40;;;2.83;;
25950;SDS011;13748;52.240;6.002;2023-07-16T13:43:25;4.43;;;2.60;;
25950;SDS011;13748;52.240;6.002;2023-07-16T13:45:52;5.43;;;3.72;;
25950;SDS011;13748;52.240;6.002;2023-07-16T13:48:19;4.93;;;3.20;;
25950;SDS011;13748;52.240;6.002;2023-07-16T13:50:46;10.90;;;3.97;;
25950;SDS011;13748;52.240;6.002;2023-07-16T13:53:13;6.25;;;3.33;;
25950;SDS011;13748;52.240;6.002;2023-07-16T13:55:41;6.25;;;3.03;;
25950;SDS011;13748;52.240;6.002;2023-07-16T13:58:09;5.43;;;3.03;;
25950;SDS011;13748;52.240;6.002;2023-07-16T14:00:37;7.30;;;3.20;;
25950;SDS011;13748;52.240;6.002;2023-07-16T14:03:03;8.05;;;4.10;;
25950;SDS011;13748;52.240;6.002;2023-07-16T14:05:30;6.20;;;3.13;;
25950;SDS011;13748;52.240;6.002;2023-07-16T14:08:01;4.32;;;3.08;;
25950;SDS011;13748;52.240;6.002;2023-07-16T14:10:28;6.45;;;3.00;;
25950;SDS011;13748;52.240;6.002;2023-07-16T14:12:55;7.28;;;3.38;;
25950;SDS011;13748;52.240;6.002;2023-07-16T14:15:21;5.93;;;3.03;;
25950;SDS011;13748;52.240;6.002;2023-07-16T14:17:49;5.88;;;2.75;;
25950;SDS011;13748;52.240;6.002;2023-07-16T14:20:16;3.65;;;2.80;;
25950;SDS011;13748;52.240;6.002;2023-07-16T14:22:43;5.60;;;2.75;;
25950;SDS011;13748;52.240;6.002;2023-07-16T14:25:10;6.18;;;2.72;;
25950;SDS011;13748;52.240;6.002;2023-07-16T14:27:36;5.80;;;2.85;;
25950;SDS011;13748;52.240;6.002;2023-07-16T14:30:03;6.45;;;2.50;;
25950;SDS011;13748;52.240;6.002;2023-07-16T14:32:33;6.88;;;2.35;;
25950;SDS011;13748;52.240;6.002;2023-07-16T14:35:00;2.65;;;2.10;;
25950;SDS011;13748;52.240;6.002;2023-07-16T14:37:27;4.90;;;2.40;;
25950;SDS011;13748;52.240;6.002;2023-07-16T14:39:54;5.55;;;2.45;;
25950;SDS011;13748;52.240;6.002;2023-07-16T14:42:21;6.22;;;2.10;;
25950;SDS011;13748;52.240;6.002;2023-07-16T14:44:48;7.90;;;3.03;;
25950;SDS011;13748;52.240;6.002;2023-07-16T14:47:15;6.45;;;2.95;;
25950;SDS011;13748;52.240;6.002;2023-07-16T14:49:43;7.70;;;4.05;;
25950;SDS011;13748;52.240;6.002;2023-07-16T14:52:10;4.50;;;2.45;;
25950;SDS011;13748;52.240;6.002;2023-07-16T14:54:36;5.38;;;2.50;;
25950;SDS011;13748;52.240;6.002;2023-07-16T14:57:03;5.43;;;2.13;;
25950;SDS011;13748;52.240;6.002;2023-07-16T14:59:30;4.88;;;2.13;;
25950;SDS011;13748;52.240;6.002;2023-07-16T15:01:57;3.88;;;2.13;;
25950;SDS011;13748;52.240;6.002;2023-07-16T15:04:24;5.45;;;1.92;;